createdAt,value
2022-08-16T00:00:57.940Z,21.45
2022-08-16T00:04:01.994Z,21.46
2022-08-16T00:07:09.588Z,21.42
2022-08-16T00:10:20.846Z,21.44
2022-08-16T00:13:25.536Z,21.36
2022-08-16T00:17:05.331Z,21.36
2022-08-16T00:19:57.259Z,21.27
2022-08-16T00:23:01.335Z,21.25
2022-08-16T00:26:35.309Z,21.18
2022-08-16T00:29:31.592Z,21.14
2022-08-16T00:32:38.806Z,21.11
2022-08-16T00:35:42.493Z,21.10
2022-08-16T00:38:46.671Z,21.07
2022-08-16T00:41:52.755Z,21.03
2022-08-16T00:45:08.051Z,21.06
2022-08-16T00:48:30.838Z,21.02
2022-08-16T00:51:35.480Z,20.98
2022-08-16T00:54:43.075Z,20.97
2022-08-16T00:58:00.176Z,20.96
2022-08-16T01:01:08.204Z,20.86
2022-08-16T01:04:29.272Z,20.86
2022-08-16T01:07:52.049Z,20.87
2022-08-16T01:10:59.987Z,20.83
2022-08-16T01:14:30.091Z,20.79
2022-08-16T01:17:36.946Z,20.77
2022-08-16T01:20:51.371Z,20.77
2022-08-16T01:24:51.723Z,20.78
2022-08-16T01:27:38.558Z,20.76
2022-08-16T01:30:49.886Z,20.75
2022-08-16T01:33:54.978Z,20.73
2022-08-16T01:37:09.061Z,20.72
2022-08-16T01:40:16.748Z,20.71
2022-08-16T01:43:22.010Z,20.71
2022-08-16T01:46:43.787Z,20.66
2022-08-16T01:50:41.907Z,20.61
2022-08-16T01:53:12.901Z,20.55
2022-08-16T01:56:24.332Z,20.56
2022-08-16T01:59:29.958Z,20.52
2022-08-16T02:02:34.054Z,20.52
2022-08-16T02:05:51.810Z,20.50
2022-08-16T02:08:56.204Z,20.48
2022-08-16T02:12:00.360Z,20.47
2022-08-16T02:15:27.205Z,20.44
2022-08-16T02:18:31.124Z,20.40
2022-08-16T02:21:37.832Z,20.36
2022-08-16T02:25:04.022Z,20.33
2022-08-16T02:28:08.595Z,20.26
2022-08-16T02:31:15.003Z,20.21
2022-08-16T02:34:20.574Z,20.22
2022-08-16T02:37:39.728Z,20.22
2022-08-16T02:40:57.347Z,20.15
2022-08-16T02:44:05.861Z,20.10
2022-08-16T02:47:10.152Z,20.07
2022-08-16T02:50:54.814Z,20.07
2022-08-16T02:53:44.684Z,20.13
2022-08-16T02:56:49.018Z,20.09
2022-08-16T02:59:53.823Z,20.04
2022-08-16T03:02:58.315Z,20.05
2022-08-16T03:06:03.461Z,20.06
2022-08-16T03:09:29.855Z,20.05
2022-08-16T03:12:37.993Z,20.01
2022-08-16T03:15:59.675Z,20.01
2022-08-16T03:19:04.978Z,20.07
2022-08-16T03:22:10.574Z,19.96
2022-08-16T03:25:16.126Z,19.95
2022-08-16T03:28:23.317Z,19.97
2022-08-16T03:31:34.875Z,19.93
2022-08-16T03:34:46.408Z,19.97
2022-08-16T03:38:01.551Z,19.93
2022-08-16T03:41:24.299Z,19.86
2022-08-16T03:44:44.929Z,19.82
2022-08-16T03:47:58.266Z,19.81
2022-08-16T03:51:07.963Z,19.75
2022-08-16T03:54:12.990Z,19.75
2022-08-16T03:57:17.163Z,19.74
2022-08-16T04:00:35.725Z,19.74
2022-08-16T04:03:44.281Z,19.73
2022-08-16T04:06:48.543Z,19.70
2022-08-16T04:09:55.235Z,19.68
2022-08-16T04:13:04.431Z,19.68
2022-08-16T04:16:26.383Z,19.68
2022-08-16T04:19:32.775Z,19.68
2022-08-16T04:22:37.980Z,19.67
2022-08-16T04:25:47.010Z,19.70
2022-08-16T04:29:14.590Z,19.70
2022-08-16T04:32:16.180Z,19.72
2022-08-16T04:35:24.200Z,19.68
2022-08-16T04:38:28.400Z,19.73
2022-08-16T04:41:37.543Z,19.74
2022-08-16T04:44:54.169Z,19.70
2022-08-16T04:48:00.101Z,19.74
2022-08-16T04:51:07.947Z,19.77
2022-08-16T04:54:19.435Z,19.77
2022-08-16T04:57:23.729Z,19.79
2022-08-16T05:00:34.727Z,19.84
2022-08-16T05:03:41.856Z,19.90
2022-08-16T05:07:03.297Z,19.95
2022-08-16T05:10:20.102Z,20.00
2022-08-16T05:13:41.027Z,20.04
2022-08-16T05:16:45.999Z,20.10
2022-08-16T05:19:58.071Z,20.15
2022-08-16T05:23:02.461Z,20.21
2022-08-16T05:26:06.586Z,20.28
2022-08-16T05:29:24.989Z,20.36
2022-08-16T05:32:47.710Z,20.36
2022-08-16T05:35:54.654Z,20.42
2022-08-16T05:38:59.730Z,20.46
2022-08-16T05:42:04.544Z,20.55
2022-08-16T05:45:09.335Z,20.59
2022-08-16T05:48:13.596Z,20.67
2022-08-16T05:51:37.715Z,20.76
2022-08-16T05:54:47.650Z,20.85
2022-08-16T05:58:03.039Z,20.97
2022-08-16T06:01:07.237Z,21.04
2022-08-16T06:04:36.093Z,21.03
2022-08-16T06:07:39.117Z,21.13
2022-08-16T06:11:02.622Z,21.19
2022-08-16T06:14:08.165Z,21.26
2022-08-16T06:17:12.333Z,21.33
2022-08-16T06:20:25.686Z,21.41
2022-08-16T06:23:39.996Z,21.47
2022-08-16T06:26:57.762Z,21.55
2022-08-16T06:30:03.190Z,21.58
2022-08-16T06:33:07.457Z,21.67
2022-08-16T06:36:17.209Z,21.81
2022-08-16T06:39:25.242Z,21.87
2022-08-16T06:42:47.268Z,21.96
2022-08-16T06:45:52.939Z,22.04
2022-08-16T06:48:57.248Z,22.14
2022-08-16T06:52:03.044Z,22.21
2022-08-16T06:55:13.039Z,22.38
2022-08-16T06:58:22.081Z,22.48
2022-08-16T07:01:43.245Z,22.56
2022-08-16T07:04:50.721Z,22.68
2022-08-16T07:07:57.047Z,23.06
2022-08-16T07:11:01.685Z,23.31
2022-08-16T07:14:26.348Z,23.29
2022-08-16T07:17:30.019Z,23.31
2022-08-16T07:20:47.039Z,23.28
2022-08-16T07:23:58.039Z,23.40
2022-08-16T07:27:12.525Z,23.41
2022-08-16T07:30:38.155Z,23.49
2022-08-16T07:33:52.107Z,23.61
2022-08-16T07:36:59.683Z,23.64
2022-08-16T07:40:11.318Z,23.83
2022-08-16T07:43:15.643Z,24.02
2022-08-16T07:46:37.495Z,24.18
2022-08-16T07:49:53.056Z,24.47
2022-08-16T07:53:02.745Z,24.75
2022-08-16T07:56:07.006Z,25.57
2022-08-16T07:59:10.843Z,26.29
2022-08-16T08:02:19.827Z,26.85
2022-08-16T08:05:35.770Z,26.98
2022-08-16T08:08:50.853Z,26.89
2022-08-16T08:11:59.946Z,26.86
2022-08-16T08:15:09.621Z,26.40
2022-08-16T08:18:30.294Z,26.16
2022-08-16T08:21:58.984Z,25.86
2022-08-16T08:25:03.730Z,26.04
2022-08-16T08:28:11.075Z,26.62
2022-08-16T08:31:17.195Z,26.76
2022-08-16T08:34:22.443Z,26.80
2022-08-16T08:37:27.580Z,26.95
2022-08-16T08:40:51.813Z,26.89
2022-08-16T08:43:57.044Z,26.91
2022-08-16T08:47:07.895Z,27.01
2022-08-16T08:50:31.902Z,26.90
2022-08-16T08:53:37.005Z,27.10
2022-08-16T08:56:45.781Z,27.36
2022-08-16T08:59:50.110Z,27.51
2022-08-16T09:02:58.064Z,27.90
2022-08-16T09:06:04.440Z,27.85
2022-08-16T09:09:16.483Z,28.00
2022-08-16T09:12:30.162Z,28.14
2022-08-16T09:15:41.016Z,28.51
2022-08-16T09:18:47.721Z,28.64
2022-08-16T09:21:59.432Z,28.67
2022-08-16T09:25:10.117Z,28.74
2022-08-16T09:29:13.997Z,28.74
2022-08-16T09:31:42.097Z,28.65
2022-08-16T09:34:46.473Z,28.77
2022-08-16T09:38:00.941Z,29.05
2022-08-16T09:41:14.855Z,28.91
2022-08-16T09:45:10.684Z,28.87
2022-08-16T09:47:56.079Z,28.81
2022-08-16T09:51:01.963Z,28.93
2022-08-16T09:54:10.708Z,28.84
2022-08-16T09:57:21.274Z,28.72
2022-08-16T10:00:44.729Z,28.55
2022-08-16T10:04:01.861Z,28.43
2022-08-16T10:07:11.978Z,28.26
2022-08-16T10:10:30.603Z,28.21
2022-08-16T10:13:35.587Z,28.10
2022-08-16T10:16:39.718Z,28.12
2022-08-16T10:19:47.026Z,28.16
2022-08-16T10:23:02.119Z,28.08
2022-08-16T10:27:16.382Z,28.14
2022-08-16T10:30:00.262Z,28.12
2022-08-16T10:32:59.341Z,28.12
2022-08-16T10:36:07.573Z,28.21
2022-08-16T10:39:11.843Z,28.25
2022-08-16T10:42:17.348Z,28.33
2022-08-16T10:45:25.488Z,28.35
2022-08-16T10:48:31.409Z,28.38
2022-08-16T10:52:02.521Z,28.46
2022-08-16T10:58:34.525Z,28.64
2022-08-16T11:01:43.706Z,28.63
2022-08-16T11:05:05.887Z,28.63
2022-08-16T11:08:11.990Z,28.84
2022-08-16T11:11:20.652Z,28.64
2022-08-16T11:14:25.423Z,28.62
2022-08-16T11:17:32.595Z,28.72
2022-08-16T11:20:41.367Z,28.90
2022-08-16T11:23:56.884Z,28.92
2022-08-16T11:27:20.557Z,29.06
2022-08-16T11:30:28.289Z,29.01
2022-08-16T11:33:57.856Z,28.65
2022-08-16T11:37:02.673Z,28.47
2022-08-16T11:40:09.640Z,28.74
2022-08-16T11:43:16.956Z,28.83
2022-08-16T11:46:43.038Z,28.81
2022-08-16T11:49:45.725Z,28.23
2022-08-16T11:52:50.390Z,28.06
2022-08-16T11:55:55.655Z,27.86
2022-08-16T11:58:59.516Z,27.79
2022-08-16T12:02:32.345Z,27.92
2022-08-16T12:05:31.027Z,28.40
2022-08-16T12:08:36.137Z,28.92
2022-08-16T12:11:40.635Z,29.21
2022-08-16T12:14:48.361Z,29.08
2022-08-16T12:17:54.188Z,28.80
2022-08-16T12:20:58.460Z,28.71
2022-08-16T12:24:05.730Z,28.76
2022-08-16T12:27:10.013Z,28.66
2022-08-16T12:30:26.472Z,28.55
2022-08-16T12:33:44.455Z,28.49
2022-08-16T12:36:48.764Z,28.51
2022-08-16T12:39:56.080Z,28.65
2022-08-16T12:43:02.713Z,28.75
2022-08-16T12:46:09.293Z,28.81
2022-08-16T12:49:13.564Z,28.82
2022-08-16T12:52:32.877Z,28.75
2022-08-16T12:55:41.672Z,28.83
2022-08-16T12:58:51.760Z,28.83
2022-08-16T13:01:59.300Z,28.82
2022-08-16T13:05:07.044Z,28.86
2022-08-16T13:08:20.231Z,28.73
2022-08-16T13:11:32.516Z,28.78
2022-08-16T13:14:41.239Z,28.72
2022-08-16T13:17:45.391Z,28.79
2022-08-16T13:20:54.931Z,29.02
2022-08-16T13:24:00.605Z,29.12
2022-08-16T13:27:08.283Z,29.27
2022-08-16T13:30:35.649Z,29.44
2022-08-16T13:33:38.006Z,29.55
2022-08-16T13:36:50.089Z,29.45
2022-08-16T13:39:54.267Z,29.46
2022-08-16T13:42:59.458Z,29.55
2022-08-16T13:46:04.638Z,29.57
2022-08-16T13:49:08.697Z,29.53
2022-08-16T13:52:13.428Z,29.55
2022-08-16T13:55:17.878Z,29.53
2022-08-16T13:58:37.395Z,29.57
2022-08-16T14:01:55.389Z,29.46
2022-08-16T14:05:05.309Z,29.37
2022-08-16T14:08:10.051Z,29.32
2022-08-16T14:11:14.957Z,29.38
2022-08-16T14:14:19.024Z,29.43
2022-08-16T14:17:31.291Z,29.38
2022-08-16T14:20:54.799Z,29.29
2022-08-16T14:23:58.922Z,29.22
2022-08-16T14:27:04.776Z,29.24
2022-08-16T14:30:15.609Z,29.33
2022-08-16T14:33:20.224Z,29.25
2022-08-16T14:36:30.043Z,29.23
2022-08-16T14:39:35.245Z,29.15
2022-08-16T14:42:44.302Z,29.07
2022-08-16T14:45:50.415Z,29.09
2022-08-16T14:48:54.619Z,29.16
2022-08-16T14:52:10.095Z,29.17
2022-08-16T14:55:15.641Z,29.07
2022-08-16T14:58:35.080Z,29.02
2022-08-16T15:01:58.570Z,28.95
2022-08-16T15:05:06.799Z,28.87
2022-08-16T15:08:13.567Z,28.77
2022-08-16T15:11:17.797Z,28.79
2022-08-16T15:14:21.935Z,28.74
2022-08-16T15:17:27.598Z,28.57
2022-08-16T15:20:38.513Z,28.52
2022-08-16T15:23:43.450Z,28.49
2022-08-16T15:26:48.491Z,28.47
2022-08-16T15:29:53.884Z,28.61
2022-08-16T15:33:04.217Z,28.66
2022-08-16T15:36:08.733Z,28.71
2022-08-16T15:39:31.702Z,28.75
2022-08-16T15:42:37.786Z,28.78
2022-08-16T15:46:05.475Z,28.76
2022-08-16T15:49:14.304Z,28.79
2022-08-16T15:52:29.749Z,28.76
2022-08-16T15:55:35.414Z,28.81
2022-08-16T15:58:39.659Z,28.79
2022-08-16T16:01:43.926Z,28.81
2022-08-16T16:04:48.135Z,28.79
2022-08-16T16:07:56.574Z,28.71
2022-08-16T16:11:15.035Z,28.61
2022-08-16T16:14:21.202Z,28.51
2022-08-16T16:17:28.223Z,28.42
2022-08-16T16:20:35.667Z,28.32
2022-08-16T16:23:54.787Z,28.24
2022-08-16T16:27:01.857Z,28.16
2022-08-16T16:30:11.329Z,28.08
2022-08-16T16:33:33.853Z,28.01
2022-08-16T16:36:43.567Z,27.97
2022-08-16T16:39:52.265Z,27.92
2022-08-16T16:42:59.881Z,27.89
2022-08-16T16:46:40.487Z,27.85
2022-08-16T16:49:30.198Z,27.80
2022-08-16T16:52:44.793Z,27.74
2022-08-16T16:55:51.983Z,27.67
2022-08-16T16:58:56.527Z,27.66
2022-08-16T17:02:41.385Z,27.63
2022-08-16T17:05:29.365Z,27.59
2022-08-16T17:08:37.809Z,27.55
2022-08-16T17:11:46.235Z,27.53
2022-08-16T17:14:59.487Z,27.51
2022-08-16T17:19:02.011Z,27.49
2022-08-16T17:21:27.865Z,27.47
2022-08-16T17:24:40.081Z,27.43
2022-08-16T17:27:51.609Z,27.42
2022-08-16T17:30:56.233Z,27.40
2022-08-16T17:34:00.354Z,27.36
2022-08-16T17:37:42.263Z,27.33
2022-08-16T17:40:58.525Z,27.31
2022-08-16T17:44:05.377Z,27.27
2022-08-16T17:47:09.457Z,27.23
2022-08-16T17:50:13.839Z,27.20
2022-08-16T17:53:20.019Z,27.16
2022-08-16T17:56:24.164Z,27.13
2022-08-16T17:59:29.241Z,27.10
2022-08-16T18:02:43.369Z,27.06
2022-08-16T18:05:48.587Z,27.01
2022-08-16T18:09:01.742Z,26.95
2022-08-16T18:12:24.011Z,26.91
2022-08-16T18:15:39.481Z,26.84
2022-08-16T18:18:44.160Z,26.80
2022-08-16T18:22:06.857Z,26.75
2022-08-16T18:25:10.798Z,26.63
2022-08-16T18:28:15.908Z,26.57
2022-08-16T18:31:20.157Z,26.49
2022-08-16T18:34:24.512Z,26.45
2022-08-16T18:37:28.558Z,26.37
2022-08-16T18:40:32.841Z,26.26
2022-08-16T18:44:23.466Z,26.19
2022-08-16T18:47:00.832Z,26.10
2022-08-16T18:50:05.673Z,26.05
2022-08-16T18:53:12.818Z,26.05
2022-08-16T18:56:16.663Z,25.98
2022-08-16T18:59:20.651Z,25.89
2022-08-16T19:02:57.441Z,25.78
2022-08-16T19:05:55.066Z,25.71
2022-08-16T19:08:58.928Z,25.63
2022-08-16T19:12:06.153Z,25.55
2022-08-16T19:15:14.560Z,25.51
2022-08-16T19:18:21.914Z,25.51
2022-08-16T19:21:26.065Z,25.47
2022-08-16T19:24:30.084Z,25.40
2022-08-16T19:27:34.287Z,25.35
2022-08-16T19:30:40.472Z,25.31
2022-08-16T19:33:53.520Z,25.27
2022-08-16T19:36:58.977Z,25.26
2022-08-16T19:40:05.402Z,25.28
2022-08-16T19:43:29.190Z,25.24
2022-08-16T19:46:33.513Z,25.25
2022-08-16T19:49:37.865Z,25.23
2022-08-16T19:52:43.006Z,25.20
2022-08-16T19:55:47.714Z,25.21
2022-08-16T19:59:17.583Z,25.21
2022-08-16T20:02:35.550Z,25.16
2022-08-16T20:05:42.843Z,25.07
2022-08-16T20:08:47.156Z,24.99
2022-08-16T20:11:53.104Z,24.94
2022-08-16T20:14:59.153Z,24.90
2022-08-16T20:18:03.271Z,24.88
2022-08-16T20:21:18.111Z,24.83
2022-08-16T20:24:34.148Z,24.82
2022-08-16T20:27:40.080Z,24.78
2022-08-16T20:30:43.953Z,24.71
2022-08-16T20:33:48.008Z,24.66
2022-08-16T20:36:52.420Z,24.58
2022-08-16T20:40:28.847Z,24.53
2022-08-16T20:43:21.287Z,24.49
2022-08-16T20:46:25.558Z,24.43
2022-08-16T20:49:29.624Z,24.37
2022-08-16T20:52:34.087Z,24.33
2022-08-16T20:55:40.361Z,24.29
2022-08-16T20:58:44.632Z,24.27
2022-08-16T21:01:50.102Z,24.23
2022-08-16T21:04:55.423Z,24.22
2022-08-16T21:07:59.142Z,24.21
2022-08-16T21:11:05.651Z,24.18
2022-08-16T21:14:11.686Z,24.16
2022-08-16T21:17:16.110Z,24.11
2022-08-16T21:20:22.617Z,24.09
2022-08-16T21:23:26.822Z,24.04
2022-08-16T21:26:31.327Z,24.03
2022-08-16T21:29:39.582Z,24.04
2022-08-16T21:32:47.100Z,24.06
2022-08-16T21:35:52.469Z,24.07
2022-08-16T21:38:56.715Z,24.07
2022-08-16T21:42:01.055Z,24.09
2022-08-16T21:45:12.469Z,24.07
2022-08-16T21:48:16.544Z,24.02
2022-08-16T21:51:20.839Z,23.99
2022-08-16T21:54:25.028Z,23.91
2022-08-16T21:57:35.598Z,23.78
2022-08-16T22:00:41.957Z,23.78
2022-08-16T22:03:45.975Z,23.76
2022-08-16T22:06:49.718Z,23.74
2022-08-16T22:09:53.668Z,23.67
2022-08-16T22:13:00.225Z,23.61
2022-08-16T22:16:04.591Z,23.62
2022-08-16T22:19:09.236Z,23.58
2022-08-16T22:22:13.902Z,23.57
2022-08-16T22:25:18.324Z,23.51
2022-08-16T22:28:23.022Z,23.43
2022-08-16T22:31:27.387Z,23.39
2022-08-16T22:34:32.229Z,23.32
2022-08-16T22:37:36.143Z,23.31
2022-08-16T22:40:40.202Z,23.26
2022-08-16T22:43:44.828Z,23.24
2022-08-16T22:46:49.411Z,23.18
2022-08-16T22:49:53.074Z,23.17
2022-08-16T22:52:58.405Z,23.09
2022-08-16T22:56:03.233Z,23.09
2022-08-16T22:59:07.591Z,23.09
2022-08-16T23:02:12.039Z,23.07
2022-08-16T23:05:17.731Z,23.08
2022-08-16T23:08:38.484Z,23.07
2022-08-16T23:11:44.802Z,23.03
2022-08-16T23:14:48.579Z,22.99
2022-08-16T23:17:58.399Z,22.92
2022-08-16T23:21:02.699Z,22.87
2022-08-16T23:24:08.666Z,22.83
2022-08-16T23:27:12.758Z,22.78
2022-08-16T23:30:19.366Z,22.75
2022-08-16T23:33:25.203Z,22.75
2022-08-16T23:36:28.894Z,22.75
2022-08-16T23:39:32.760Z,22.72
2022-08-16T23:43:43.271Z,22.70
2022-08-16T23:52:54.025Z,22.56
2022-08-16T23:55:52.122Z,22.49
2022-08-16T23:59:02.910Z,22.48
